createdAt,value
2018-02-21T00:00:10.217Z,52.13
2018-02-21T00:02:37.644Z,51.43
2018-02-21T00:05:05.876Z,53.53
2018-02-21T00:07:33.296Z,52.60
2018-02-21T00:10:00.729Z,57.30
2018-02-21T00:12:28.179Z,56.97
2018-02-21T00:14:55.613Z,50.50
2018-02-21T00:17:23.040Z,49.77
2018-02-21T00:19:50.472Z,48.60
2018-02-21T00:22:17.899Z,44.93
2018-02-21T00:24:45.335Z,47.07
2018-02-21T00:27:12.775Z,50.23
2018-02-21T00:29:40.976Z,53.73
2018-02-21T00:32:08.424Z,51.37
2018-02-21T00:34:35.843Z,51.10
2018-02-21T00:37:03.280Z,49.17
2018-02-21T00:39:30.708Z,52.60
2018-02-21T00:41:58.136Z,53.10
2018-02-21T00:44:26.341Z,52.73
2018-02-21T00:46:53.800Z,56.13
2018-02-21T00:49:21.252Z,56.03
2018-02-21T00:51:48.680Z,55.47
2018-02-21T00:54:16.120Z,58.17
2018-02-21T00:56:43.557Z,52.90
2018-02-21T00:59:11.004Z,58.10
2018-02-21T01:01:38.443Z,55.30
2018-02-21T01:04:06.997Z,58.73
2018-02-21T01:06:34.423Z,61.90
2018-02-21T01:09:01.853Z,58.60
2018-02-21T01:11:29.297Z,56.03
2018-02-21T01:13:56.735Z,64.87
2018-02-21T01:16:24.177Z,57.23
2018-02-21T01:18:51.606Z,61.50
2018-02-21T01:21:19.812Z,60.40
2018-02-21T01:23:47.249Z,60.47
2018-02-21T01:26:14.692Z,55.73
2018-02-21T01:28:42.144Z,59.37
2018-02-21T01:31:09.596Z,57.93
2018-02-21T01:33:37.027Z,55.23
2018-02-21T01:36:04.470Z,59.07
2018-02-21T01:38:31.905Z,55.17
2018-02-21T01:40:59.352Z,53.47
2018-02-21T01:43:26.796Z,58.67
2018-02-21T01:45:54.220Z,61.20
2018-02-21T01:48:21.657Z,61.73
2018-02-21T01:50:52.036Z,61.47
2018-02-21T01:53:20.228Z,59.63
2018-02-21T01:55:47.673Z,62.77
2018-02-21T01:58:15.111Z,58.57
2018-02-21T02:00:42.639Z,58.73
2018-02-21T02:03:10.059Z,57.57
2018-02-21T02:05:38.278Z,60.13
2018-02-21T02:08:05.711Z,61.43
2018-02-21T02:10:33.133Z,64.47
2018-02-21T02:13:00.564Z,59.87
2018-02-21T02:15:28.003Z,57.07
2018-02-21T02:17:56.211Z,57.73
2018-02-21T02:20:23.673Z,60.57
2018-02-21T02:22:51.119Z,60.63
2018-02-21T02:25:19.334Z,58.03
2018-02-21T02:27:46.784Z,58.80
2018-02-21T02:30:14.246Z,54.07
2018-02-21T02:32:41.675Z,53.80
2018-02-21T02:35:09.106Z,55.90
2018-02-21T02:37:36.549Z,57.87
2018-02-21T02:40:03.981Z,60.10
2018-02-21T02:42:31.436Z,57.00
2018-02-21T02:44:58.872Z,59.60
2018-02-21T02:47:26.307Z,59.13
2018-02-21T02:49:53.746Z,58.30
2018-02-21T02:52:21.193Z,57.07
2018-02-21T02:54:48.632Z,57.73
2018-02-21T02:57:16.073Z,56.63
2018-02-21T02:59:43.509Z,60.20
2018-02-21T03:02:10.950Z,59.07
2018-02-21T03:04:38.391Z,57.03
2018-02-21T03:07:05.839Z,54.30
2018-02-21T03:09:33.273Z,56.03
2018-02-21T03:12:00.707Z,53.87
2018-02-21T03:14:28.148Z,55.00
2018-02-21T03:16:55.598Z,57.27
2018-02-21T03:19:23.016Z,54.13
2018-02-21T03:21:50.475Z,62.83
2018-02-21T03:24:17.908Z,61.27
2018-02-21T03:26:45.349Z,57.10
2018-02-21T03:29:12.787Z,59.13
2018-02-21T03:31:40.408Z,61.27
2018-02-21T03:34:08.608Z,56.93
2018-02-21T03:36:36.062Z,63.17
2018-02-21T03:39:03.511Z,59.50
2018-02-21T03:41:30.961Z,58.23
2018-02-21T03:43:58.392Z,59.43
2018-02-21T03:46:25.815Z,58.10
2018-02-21T03:48:53.270Z,60.87
2018-02-21T03:51:20.700Z,61.77
2018-02-21T03:53:48.159Z,58.30
2018-02-21T03:56:15.588Z,62.80
2018-02-21T03:58:43.019Z,58.40
2018-02-21T04:01:10.459Z,61.30
2018-02-21T04:03:37.900Z,70.00
2018-02-21T04:06:05.352Z,56.50
2018-02-21T04:08:32.789Z,61.23
2018-02-21T04:11:00.229Z,67.23
2018-02-21T04:13:27.672Z,63.73
2018-02-21T04:15:55.112Z,59.77
2018-02-21T04:18:22.559Z,66.67
2018-02-21T04:20:49.992Z,60.93
2018-02-21T04:23:17.528Z,63.40
2018-02-21T04:25:45.706Z,54.70
2018-02-21T04:28:13.148Z,62.93
2018-02-21T04:30:40.604Z,63.93
2018-02-21T04:33:08.040Z,53.33
2018-02-21T04:35:35.456Z,63.83
2018-02-21T04:38:02.906Z,53.40
2018-02-21T04:40:30.344Z,63.67
2018-02-21T04:42:57.791Z,60.87
2018-02-21T04:45:25.248Z,56.63
2018-02-21T04:47:52.700Z,57.13
2018-02-21T04:50:20.135Z,58.57
2018-02-21T04:52:47.568Z,62.40
2018-02-21T04:55:15.836Z,54.80
2018-02-21T04:57:49.007Z,57.10
2018-02-21T05:00:16.845Z,57.50
2018-02-21T05:02:44.280Z,57.00
2018-02-21T05:05:11.761Z,54.90
2018-02-21T05:07:39.192Z,55.57
2018-02-21T05:10:06.634Z,53.70
2018-02-21T05:12:34.052Z,57.20
2018-02-21T05:15:01.484Z,59.97
2018-02-21T05:17:28.916Z,54.73
2018-02-21T05:19:56.357Z,57.00
2018-02-21T05:22:23.803Z,62.40
2018-02-21T05:24:51.251Z,54.23
2018-02-21T05:27:18.688Z,52.23
2018-02-21T05:29:46.128Z,53.43
2018-02-21T05:32:13.555Z,60.77
2018-02-21T05:34:41.766Z,59.90
2018-02-21T05:37:09.202Z,57.53
2018-02-21T05:39:36.627Z,59.33
2018-02-21T05:42:04.080Z,55.87
2018-02-21T05:44:31.500Z,56.23
2018-02-21T05:46:58.984Z,56.23
2018-02-21T05:49:27.215Z,59.57
2018-02-21T05:51:54.652Z,56.27
2018-02-21T05:54:22.108Z,63.77
2018-02-21T05:56:49.524Z,63.40
2018-02-21T05:59:16.964Z,65.43
2018-02-21T06:01:44.404Z,65.33
2018-02-21T06:04:11.852Z,70.20
2018-02-21T06:06:39.308Z,68.40
2018-02-21T06:09:06.744Z,67.07
2018-02-21T06:11:34.186Z,72.60
2018-02-21T06:14:01.615Z,63.33
2018-02-21T06:16:29.044Z,69.97
2018-02-21T06:18:57.245Z,66.07
2018-02-21T06:21:24.697Z,68.03
2018-02-21T06:23:52.136Z,70.10
2018-02-21T06:26:19.561Z,71.37
2018-02-21T06:28:47.016Z,78.87
2018-02-21T06:31:14.440Z,75.93
2018-02-21T06:33:41.880Z,81.67
2018-02-21T06:36:09.336Z,80.63
2018-02-21T06:38:36.777Z,82.43
2018-02-21T06:41:04.213Z,84.37
2018-02-21T06:43:31.639Z,78.50
2018-02-21T06:45:59.061Z,90.87
2018-02-21T06:48:26.516Z,87.90
2018-02-21T06:50:53.968Z,89.63
2018-02-21T06:53:21.399Z,85.60
2018-02-21T06:55:48.826Z,89.83
2018-02-21T06:58:16.252Z,82.33
2018-02-21T07:00:44.451Z,93.20
2018-02-21T07:03:11.876Z,84.33
2018-02-21T07:05:39.300Z,99.93
2018-02-21T07:08:07.507Z,87.33
2018-02-21T07:10:34.936Z,85.57
2018-02-21T07:13:02.389Z,80.57
2018-02-21T07:15:29.876Z,83.67
2018-02-21T07:17:57.263Z,81.30
2018-02-21T07:20:24.724Z,84.03
2018-02-21T07:22:52.156Z,82.77
2018-02-21T07:25:19.595Z,80.17
2018-02-21T07:27:47.025Z,77.03
2018-02-21T07:30:14.472Z,79.27
2018-02-21T07:32:41.908Z,83.13
2018-02-21T07:35:09.347Z,80.33
2018-02-21T07:37:36.779Z,83.90
2018-02-21T07:40:04.209Z,80.70
2018-02-21T07:42:32.415Z,79.67
2018-02-21T07:44:59.852Z,78.50
2018-02-21T07:47:27.272Z,79.83
2018-02-21T07:49:54.696Z,75.70
2018-02-21T07:52:22.123Z,80.13
2018-02-21T07:54:50.312Z,74.80
2018-02-21T07:57:17.756Z,78.57
2018-02-21T07:59:45.196Z,77.90
2018-02-21T08:02:12.623Z,81.07
2018-02-21T08:04:40.061Z,81.53
2018-02-21T08:07:07.504Z,88.10
2018-02-21T08:09:35.717Z,77.60
2018-02-21T08:12:03.143Z,76.00
2018-02-21T08:14:30.581Z,78.43
2018-02-21T08:16:58.008Z,77.43
2018-02-21T08:19:25.448Z,72.97
2018-02-21T08:21:52.880Z,73.37
2018-02-21T08:24:20.320Z,75.60
2018-02-21T08:26:47.752Z,77.60
2018-02-21T08:29:15.187Z,71.87
2018-02-21T08:31:43.380Z,74.93
2018-02-21T08:34:10.817Z,70.53
2018-02-21T08:36:38.297Z,84.97
2018-02-21T08:39:05.672Z,68.70
2018-02-21T08:41:33.110Z,69.37
2018-02-21T08:44:01.305Z,66.87
2018-02-21T08:46:28.744Z,70.70
2018-02-21T08:48:56.172Z,76.17
2018-02-21T08:51:23.611Z,76.93
2018-02-21T08:53:51.049Z,78.97
2018-02-21T08:56:18.516Z,75.17
2018-02-21T08:58:45.970Z,66.63
2018-02-21T09:01:13.400Z,70.40
2018-02-21T09:03:40.847Z,77.30
2018-02-21T09:06:08.285Z,80.93
2018-02-21T09:08:35.711Z,76.63
2018-02-21T09:11:03.151Z,80.37
2018-02-21T09:13:30.576Z,79.27
2018-02-21T09:15:58.004Z,76.33
2018-02-21T09:18:26.203Z,73.07
2018-02-21T09:20:53.639Z,68.60
2018-02-21T09:23:21.089Z,70.37
2018-02-21T09:25:48.503Z,74.10
2018-02-21T09:28:15.940Z,74.63
2018-02-21T09:30:43.374Z,73.57
2018-02-21T09:33:11.556Z,73.07
2018-02-21T09:35:38.992Z,67.57
2018-02-21T09:38:06.422Z,69.43
2018-02-21T09:40:34.620Z,76.50
2018-02-21T09:43:02.052Z,71.83
2018-02-21T09:45:29.480Z,71.17
2018-02-21T09:47:56.924Z,68.77
2018-02-21T09:50:24.364Z,63.77
2018-02-21T09:52:51.788Z,68.63
2018-02-21T09:55:19.228Z,71.37
2018-02-21T09:57:46.692Z,70.77
2018-02-21T10:00:14.127Z,74.23
2018-02-21T10:02:41.549Z,71.77
2018-02-21T10:05:09.752Z,69.90
2018-02-21T10:07:37.178Z,69.43
2018-02-21T10:10:04.618Z,71.17
2018-02-21T10:12:32.048Z,74.57
2018-02-21T10:14:59.476Z,80.20
2018-02-21T10:17:27.686Z,69.80
2018-02-21T10:19:55.103Z,78.10
2018-02-21T10:22:22.544Z,77.83
2018-02-21T10:24:49.983Z,68.83
2018-02-21T10:27:17.404Z,70.33
2018-02-21T10:29:44.832Z,63.60
2018-02-21T10:32:13.027Z,73.33
2018-02-21T10:34:40.451Z,73.03
2018-02-21T10:37:07.886Z,71.83
2018-02-21T10:39:36.084Z,66.70
2018-02-21T10:42:03.514Z,69.60
2018-02-21T10:44:30.927Z,74.57
2018-02-21T10:46:58.356Z,70.27
2018-02-21T10:49:26.572Z,75.20
2018-02-21T10:51:54.041Z,74.37
2018-02-21T10:54:21.458Z,79.20
2018-02-21T10:56:48.884Z,69.53
2018-02-21T10:59:16.329Z,78.73
2018-02-21T11:01:43.749Z,77.47
2018-02-21T11:04:11.176Z,77.10
2018-02-21T11:06:39.379Z,73.47
2018-02-21T11:09:06.808Z,75.73
2018-02-21T11:11:34.249Z,84.53
2018-02-21T11:14:01.664Z,67.13
2018-02-21T11:16:29.094Z,73.13
2018-02-21T11:18:57.297Z,75.10
2018-02-21T11:21:24.723Z,74.10
2018-02-21T11:23:52.144Z,72.17
2018-02-21T11:26:19.627Z,73.87
2018-02-21T11:28:47.865Z,71.10
2018-02-21T11:31:15.347Z,73.87
2018-02-21T11:33:42.752Z,68.33
2018-02-21T11:36:10.174Z,66.10
2018-02-21T11:38:37.629Z,67.63
2018-02-21T11:41:05.052Z,64.83
2018-02-21T11:43:33.227Z,70.07
2018-02-21T11:46:00.648Z,63.17
2018-02-21T11:48:28.844Z,63.07
2018-02-21T11:50:56.286Z,61.87
2018-02-21T11:53:23.696Z,60.37
2018-02-21T11:55:51.137Z,69.37
2018-02-21T11:58:19.328Z,60.93
2018-02-21T12:00:46.743Z,59.50
2018-02-21T12:03:14.172Z,57.80
2018-02-21T12:05:42.361Z,65.30
2018-02-21T12:08:09.785Z,57.43
2018-02-21T12:10:37.204Z,65.53
2018-02-21T12:13:05.425Z,61.30
2018-02-21T12:15:32.849Z,64.23
2018-02-21T12:18:00.281Z,58.63
2018-02-21T12:20:27.712Z,55.30
2018-02-21T12:22:55.136Z,57.30
2018-02-21T12:25:23.324Z,57.80
2018-02-21T12:27:50.768Z,60.37
2018-02-21T12:30:18.176Z,62.10
2018-02-21T12:32:47.796Z,59.43
2018-02-21T12:35:15.235Z,46.93
2018-02-21T12:37:42.704Z,45.10
2018-02-21T12:40:15.849Z,50.77
2018-02-21T12:42:43.267Z,46.77
2018-02-21T12:45:11.459Z,49.03
2018-02-21T12:47:38.884Z,51.27
2018-02-21T12:50:06.381Z,50.33
2018-02-21T12:52:33.750Z,51.20
2018-02-21T12:55:01.945Z,48.83
2018-02-21T12:57:29.363Z,49.53
2018-02-21T12:59:56.784Z,50.43
2018-02-21T13:02:24.977Z,47.20
2018-02-21T13:04:52.417Z,48.23
2018-02-21T13:07:19.839Z,41.47
2018-02-21T13:09:48.036Z,43.90
2018-02-21T13:12:15.467Z,45.90
2018-02-21T13:14:42.927Z,42.67
2018-02-21T13:17:10.369Z,42.90
2018-02-21T13:19:37.800Z,43.67
2018-02-21T13:22:05.224Z,42.23
2018-02-21T13:24:32.656Z,46.77
2018-02-21T13:27:00.080Z,49.77
2018-02-21T13:29:28.279Z,48.40
2018-02-21T13:31:55.710Z,47.67
2018-02-21T13:34:23.132Z,48.63
2018-02-21T13:36:51.323Z,51.67
2018-02-21T13:39:18.760Z,52.40
2018-02-21T13:41:46.198Z,50.33
2018-02-21T13:44:13.620Z,51.40
2018-02-21T13:46:41.803Z,45.93
2018-02-21T13:49:09.238Z,55.97
2018-02-21T13:51:36.672Z,52.30
2018-02-21T13:54:04.108Z,55.17
2018-02-21T13:56:31.548Z,53.43
2018-02-21T13:58:58.993Z,57.10
2018-02-21T14:01:26.403Z,50.23
2018-02-21T14:03:54.608Z,60.60
2018-02-21T14:06:22.028Z,52.90
2018-02-21T14:08:49.456Z,48.00
2018-02-21T14:11:17.647Z,50.27
2018-02-21T14:13:45.093Z,50.93
2018-02-21T14:16:12.512Z,47.80
2018-02-21T14:18:39.947Z,51.23
2018-02-21T14:21:08.120Z,50.00
2018-02-21T14:23:35.552Z,53.33
2018-02-21T14:26:02.971Z,53.97
2018-02-21T14:28:30.432Z,47.60
2018-02-21T14:30:58.623Z,51.97
2018-02-21T14:33:26.054Z,49.73
2018-02-21T14:35:53.500Z,49.77
2018-02-21T14:38:20.935Z,46.20
2018-02-21T14:40:48.361Z,44.67
2018-02-21T14:43:15.788Z,42.50
2018-02-21T14:45:43.204Z,52.03
2018-02-21T14:48:10.635Z,46.50
2018-02-21T14:50:38.056Z,48.47
2018-02-21T14:53:05.480Z,49.63
2018-02-21T14:55:32.908Z,42.23
2018-02-21T14:58:00.344Z,46.30
2018-02-21T15:00:29.255Z,46.37
2018-02-21T15:02:56.702Z,50.87
2018-02-21T15:05:24.132Z,52.33
2018-02-21T15:07:51.568Z,48.07
2018-02-21T15:10:19.008Z,45.23
2018-02-21T15:12:46.432Z,36.27
2018-02-21T15:15:13.875Z,46.70
2018-02-21T15:17:41.295Z,42.40
2018-02-21T15:20:08.741Z,47.23
2018-02-21T15:22:36.160Z,45.10
2018-02-21T15:25:03.596Z,48.43
2018-02-21T15:27:31.016Z,43.53
2018-02-21T15:29:58.456Z,45.60
2018-02-21T15:32:25.881Z,46.97
2018-02-21T15:34:53.308Z,49.77
2018-02-21T15:37:20.740Z,47.13
2018-02-21T15:39:48.957Z,47.13
2018-02-21T15:42:16.382Z,48.70
2018-02-21T15:44:43.808Z,45.73
2018-02-21T15:47:11.264Z,48.53
2018-02-21T15:49:38.656Z,43.60
2018-02-21T15:52:06.866Z,46.13
2018-02-21T15:54:34.302Z,43.63
2018-02-21T15:57:01.724Z,45.10
2018-02-21T15:59:29.152Z,45.07
2018-02-21T16:01:56.577Z,45.37
2018-02-21T16:04:24.775Z,42.00
2018-02-21T16:06:52.203Z,42.37
2018-02-21T16:09:19.616Z,43.10
2018-02-21T16:11:47.824Z,44.43
2018-02-21T16:14:15.261Z,49.27
2018-02-21T16:16:42.724Z,55.77
2018-02-21T16:19:10.153Z,46.60
2018-02-21T16:21:37.612Z,50.87
2018-02-21T16:24:05.037Z,52.60
2018-02-21T16:26:32.464Z,49.03
2018-02-21T16:28:59.901Z,41.80
2018-02-21T16:31:27.312Z,44.87
2018-02-21T16:33:55.513Z,49.90
2018-02-21T16:36:22.935Z,46.27
2018-02-21T16:38:50.381Z,49.10
2018-02-21T16:41:17.817Z,46.77
2018-02-21T16:43:45.257Z,44.40
2018-02-21T16:46:12.709Z,45.67
2018-02-21T16:48:40.132Z,49.77
2018-02-21T16:51:08.340Z,46.90
2018-02-21T16:53:35.759Z,46.33
2018-02-21T16:56:03.184Z,47.90
2018-02-21T16:58:30.616Z,50.37
2018-02-21T17:00:58.812Z,46.33
2018-02-21T17:03:26.235Z,46.57
2018-02-21T17:05:53.684Z,49.40
2018-02-21T17:08:21.095Z,44.27
2018-02-21T17:10:49.279Z,42.97
2018-02-21T17:13:16.772Z,45.77
2018-02-21T17:15:44.140Z,44.00
2018-02-21T17:18:12.415Z,46.13
2018-02-21T17:20:39.880Z,46.83
2018-02-21T17:23:08.037Z,46.40
2018-02-21T17:25:35.476Z,46.70
2018-02-21T17:28:02.896Z,47.97
2018-02-21T17:30:30.319Z,43.77
2018-02-21T17:32:58.516Z,43.23
2018-02-21T17:35:25.940Z,44.33
2018-02-21T17:37:53.369Z,43.57
2018-02-21T17:40:21.560Z,45.77
2018-02-21T17:42:48.992Z,41.70
2018-02-21T17:45:16.432Z,41.67
2018-02-21T17:47:43.840Z,44.10
2018-02-21T17:50:12.041Z,42.97
2018-02-21T17:52:39.472Z,40.63
2018-02-21T17:55:06.888Z,47.53
2018-02-21T17:57:35.088Z,42.77
2018-02-21T18:00:02.512Z,43.53
2018-02-21T18:02:29.931Z,41.20
2018-02-21T18:04:58.121Z,26.17
2018-02-21T18:07:25.548Z,42.13
2018-02-21T18:09:52.972Z,40.83
2018-02-21T18:12:21.166Z,41.10
2018-02-21T18:14:48.599Z,41.93
2018-02-21T18:17:16.012Z,35.03
2018-02-21T18:19:44.199Z,37.00
2018-02-21T18:22:11.639Z,40.63
2018-02-21T18:24:39.056Z,36.47
2018-02-21T18:27:07.264Z,35.97
2018-02-21T18:29:34.688Z,36.30
2018-02-21T18:32:02.133Z,45.30
2018-02-21T18:34:29.552Z,37.23
2018-02-21T18:36:56.980Z,39.83
2018-02-21T18:39:25.177Z,33.07
2018-02-21T18:41:52.612Z,37.23
2018-02-21T18:44:20.072Z,38.47
2018-02-21T18:46:47.516Z,33.90
2018-02-21T18:49:14.932Z,36.00
2018-02-21T18:51:42.372Z,35.67
2018-02-21T18:54:09.799Z,34.70
2018-02-21T18:56:37.989Z,40.93
2018-02-21T18:59:05.411Z,38.27
2018-02-21T19:01:32.854Z,34.90
2018-02-21T19:04:00.292Z,32.43
2018-02-21T19:06:27.715Z,31.00
2018-02-21T19:08:55.164Z,34.67
2018-02-21T19:11:23.355Z,31.87
2018-02-21T19:13:50.775Z,32.63
2018-02-21T19:16:18.204Z,29.37
2018-02-21T19:18:46.396Z,28.40
2018-02-21T19:21:13.820Z,32.00
2018-02-21T19:23:41.248Z,27.70
2018-02-21T19:26:08.672Z,30.53
2018-02-21T19:28:36.859Z,30.53
2018-02-21T19:31:04.292Z,27.77
2018-02-21T19:33:31.712Z,33.83
2018-02-21T19:35:59.940Z,32.07
2018-02-21T19:38:27.369Z,32.70
2018-02-21T19:40:54.809Z,32.13
2018-02-21T19:43:22.244Z,35.20
2018-02-21T19:45:49.672Z,36.53
2018-02-21T19:48:17.108Z,32.40
2018-02-21T19:50:44.552Z,29.37
2018-02-21T19:53:11.997Z,33.87
2018-02-21T19:55:39.448Z,30.63
2018-02-21T19:58:06.884Z,29.53
2018-02-21T20:00:34.319Z,34.70
2018-02-21T20:03:01.760Z,35.67
2018-02-21T20:05:29.206Z,35.10
2018-02-21T20:07:56.656Z,33.40
2018-02-21T20:10:24.088Z,29.10
2018-02-21T20:12:51.568Z,35.77
2018-02-21T20:15:18.990Z,38.70
2018-02-21T20:17:46.432Z,34.57
2018-02-21T20:20:13.860Z,35.10
2018-02-21T20:22:41.292Z,33.50
2018-02-21T20:25:08.727Z,32.60
2018-02-21T20:27:36.160Z,39.10
2018-02-21T20:30:04.356Z,33.20
2018-02-21T20:32:31.780Z,31.00
2018-02-21T20:34:59.216Z,36.20
2018-02-21T20:37:26.661Z,35.67
2018-02-21T20:39:54.093Z,32.90
2018-02-21T20:42:21.584Z,31.47
2018-02-21T20:44:49.036Z,32.70
2018-02-21T20:47:16.482Z,37.17
2018-02-21T20:49:43.907Z,35.37
2018-02-21T20:52:11.345Z,36.97
2018-02-21T20:54:38.769Z,40.57
2018-02-21T20:57:06.209Z,36.50
2018-02-21T20:59:33.641Z,33.10
2018-02-21T21:02:01.067Z,33.70
2018-02-21T21:04:28.507Z,39.10
2018-02-21T21:06:56.840Z,36.80
2018-02-21T21:09:24.260Z,35.17
2018-02-21T21:11:51.744Z,34.70
2018-02-21T21:14:19.134Z,32.37
2018-02-21T21:16:46.590Z,37.23
2018-02-21T21:19:14.038Z,38.27
2018-02-21T21:21:41.479Z,32.93
2018-02-21T21:24:08.903Z,38.03
2018-02-21T21:26:36.355Z,43.00
2018-02-21T21:29:03.783Z,36.13
2018-02-21T21:31:31.247Z,37.33
2018-02-21T21:33:58.675Z,37.30
2018-02-21T21:36:26.099Z,35.30
2018-02-21T21:38:53.550Z,38.97
2018-02-21T21:41:20.987Z,36.57
2018-02-21T21:43:48.444Z,37.00
2018-02-21T21:46:15.868Z,37.87
2018-02-21T21:48:43.300Z,38.60
2018-02-21T21:51:10.748Z,38.77
2018-02-21T21:53:38.189Z,36.07
2018-02-21T21:56:05.640Z,43.47
2018-02-21T21:58:33.068Z,29.60
2018-02-21T22:01:00.505Z,40.83
2018-02-21T22:03:27.939Z,44.93
2018-02-21T22:05:55.415Z,39.47
2018-02-21T22:08:22.945Z,27.27
2018-02-21T22:10:50.392Z,40.83
2018-02-21T22:13:17.832Z,45.00
2018-02-21T22:15:45.284Z,31.33
2018-02-21T22:18:12.711Z,37.17
2018-02-21T22:20:40.145Z,39.33
2018-02-21T22:23:07.564Z,41.80
2018-02-21T22:25:35.020Z,37.83
2018-02-21T22:28:02.448Z,37.53
2018-02-21T22:30:29.931Z,41.23
2018-02-21T22:32:57.383Z,39.80
2018-02-21T22:35:24.819Z,36.43
2018-02-21T22:37:52.253Z,43.23
2018-02-21T22:40:19.683Z,39.10
2018-02-21T22:42:47.123Z,37.80
2018-02-21T22:45:14.584Z,43.93
2018-02-21T22:47:42.011Z,42.47
2018-02-21T22:50:09.435Z,38.97
2018-02-21T22:52:36.882Z,39.63
2018-02-21T22:55:04.324Z,40.10
2018-02-21T22:57:31.763Z,45.87
2018-02-21T22:59:59.204Z,36.97
2018-02-21T23:02:26.649Z,42.27
2018-02-21T23:04:54.084Z,38.07
2018-02-21T23:07:21.525Z,40.77
2018-02-21T23:09:48.963Z,39.13
2018-02-21T23:12:16.401Z,36.23
2018-02-21T23:14:43.861Z,39.63
2018-02-21T23:17:11.288Z,37.60
2018-02-21T23:19:38.722Z,40.47
2018-02-21T23:22:06.172Z,40.10
2018-02-21T23:24:33.630Z,38.83
2018-02-21T23:27:01.068Z,42.30
2018-02-21T23:29:28.524Z,40.80
2018-02-21T23:31:55.939Z,30.47
2018-02-21T23:34:23.375Z,42.17
2018-02-21T23:36:50.820Z,40.37
2018-02-21T23:39:18.268Z,45.40
2018-02-21T23:41:45.720Z,38.17
2018-02-21T23:44:13.156Z,41.60
2018-02-21T23:46:40.585Z,37.40
2018-02-21T23:49:08.018Z,37.63
2018-02-21T23:51:35.455Z,30.50
2018-02-21T23:54:02.908Z,41.67
2018-02-21T23:56:30.332Z,36.57
2018-02-21T23:58:58.548Z,43.53
